Time;durP1;ratioP1;P1;durP2;ratioP2;P2;SDS_P1;SDS_P2;PMS_P1;PMS_P2;Temp;Humidity;BMP_temperature;BMP_pressure;BME280_temperature;BME280_humidity;BME280_pressure;Samples;Min_cycle;Max_cycle;Signal;HPM_P1;HPM_P2
2023/06/13 00:01:08;;;;;;;19.37;7.80;;;;;;;20.57;80.54;99684.75;5083674;28;20283;-56
2023/06/13 00:03:39;;;;;;;25.03;9.30;;;;;;;20.73;80.09;99716.41;5053021;28;20617;-56
2023/06/13 00:06:13;;;;;;;16.33;8.13;;;;;;;20.59;80.36;99704.94;5063329;28;20305;-57
2023/06/13 00:08:43;;;;;;;15.73;8.73;;;;;;;20.29;80.84;99677.72;5054598;28;20290;-57
2023/06/13 00:11:14;;;;;;;20.80;8.70;;;;;;;20.51;80.99;99709.84;5103712;27;20330;-57
2023/06/13 00:13:45;;;;;;;19.67;8.63;;;;;;;20.55;81.40;99718.50;5079158;27;20281;-58
2023/06/13 00:16:15;;;;;;;11.07;7.77;;;;;;;20.29;80.79;99664.44;5074671;28;20282;-57
2023/06/13 00:18:46;;;;;;;15.53;8.17;;;;;;;20.59;81.49;99712.88;5061251;28;20748;-57
2023/06/13 00:21:18;;;;;;;16.97;8.47;;;;;;;20.66;80.81;99706.19;5080963;28;20338;-57
2023/06/13 00:23:49;;;;;;;15.63;8.00;;;;;;;20.58;80.24;99697.91;5071425;28;20850;-56
2023/06/13 00:26:19;;;;;;;15.03;8.13;;;;;;;20.55;80.40;99702.56;5072683;28;20300;-55
2023/06/13 00:28:51;;;;;;;16.70;7.80;;;;;;;20.58;80.53;99702.38;5061706;28;20616;-56
2023/06/13 00:31:24;;;;;;;15.93;8.00;;;;;;;20.54;79.92;99701.66;5071547;28;20294;-55
2023/06/13 00:33:55;;;;;;;15.17;8.10;;;;;;;20.48;80.42;99702.09;5062423;28;20281;-55
2023/06/13 00:36:28;;;;;;;17.20;7.50;;;;;;;20.43;81.39;99698.91;5076150;28;20328;-56
2023/06/13 00:38:59;;;;;;;18.03;8.10;;;;;;;20.42;80.86;99697.22;5072008;27;20289;-55
2023/06/13 00:41:33;;;;;;;14.20;8.50;;;;;;;20.22;80.63;99702.00;5082685;28;20866;-55
2023/06/13 00:44:04;;;;;;;17.63;7.40;;;;;;;20.26;80.26;99700.00;5072373;28;20624;-57
2023/06/13 00:46:36;;;;;;;16.03;7.77;;;;;;;19.90;80.49;99648.41;5072530;28;20284;-57
2023/06/13 00:49:08;;;;;;;13.43;6.67;;;;;;;20.22;80.63;99707.31;5078415;28;20334;-56
2023/06/13 00:51:41;;;;;;;17.13;7.10;;;;;;;20.15;81.48;99706.00;5063679;28;20304;-57
2023/06/13 00:54:16;;;;;;;17.43;7.53;;;;;;;19.98;81.35;99703.59;5071595;28;20281;-56
2023/06/13 00:56:48;;;;;;;14.00;7.73;;;;;;;19.87;81.54;99711.38;5062216;28;20309;-56
2023/06/13 00:59:20;;;;;;;19.20;7.97;;;;;;;19.73;82.22;99715.75;5077672;28;20314;-56
2023/06/13 01:01:53;;;;;;;11.40;7.17;;;;;;;19.58;82.75;99716.69;5066949;28;20776;-56
2023/06/13 01:04:24;;;;;;;16.03;7.43;;;;;;;19.39;83.41;99701.94;5074122;27;20292;-57
2023/06/13 01:06:57;;;;;;;12.83;6.37;;;;;;;19.33;83.83;99707.59;5075370;28;20278;-55
2023/06/13 01:09:27;;;;;;;11.67;7.90;;;;;;;19.21;84.23;99711.00;5072732;28;21056;-56
2023/06/13 01:12:08;;;;;;;19.47;8.37;;;;;;;19.08;84.46;99712.69;5056779;28;20305;-55
2023/06/13 01:14:47;;;;;;;18.87;8.10;;;;;;;18.94;85.50;99710.88;5065715;28;20285;-55
2023/06/13 01:17:24;;;;;;;18.50;7.95;;;;;;;18.75;85.61;99703.16;5070428;28;20286;-58
2023/06/13 01:19:58;;;;;;;15.20;8.27;;;;;;;18.63;86.15;99702.06;5061849;28;20051;-58
2023/06/13 01:22:42;;;;;;;19.53;9.10;;;;;;;18.54;86.81;99703.44;5071417;28;20448;-58
2023/06/13 01:25:21;;;;;;;20.77;9.50;;;;;;;18.46;87.36;99708.34;5062638;28;20277;-58
2023/06/13 01:27:55;;;;;;;18.77;9.10;;;;;;;18.36;88.08;99704.53;5063201;28;20290;-58
2023/06/13 01:30:28;;;;;;;20.30;10.10;;;;;;;18.25;88.38;99696.38;5072708;28;20297;-57
2023/06/13 01:32:59;;;;;;;13.87;9.27;;;;;;;18.16;88.71;99697.72;5061633;28;20286;-57
2023/06/13 01:35:32;;;;;;;18.70;10.10;;;;;;;18.10;89.88;99691.00;5071425;28;20760;-58
2023/06/13 01:38:05;;;;;;;18.07;8.90;;;;;;;17.59;91.47;99626.88;5061426;28;20277;-57
2023/06/13 01:40:36;;;;;;;15.90;9.23;;;;;;;17.89;93.60;99700.13;5061434;28;20274;-58
2023/06/13 01:43:08;;;;;;;15.57;10.23;;;;;;;17.80;94.75;99700.66;5072058;28;20313;-58
2023/06/13 01:45:39;;;;;;;16.83;9.43;;;;;;;17.78;95.81;99698.06;5062217;27;20286;-57
2023/06/13 01:48:20;;;;;;;16.97;10.60;;;;;;;17.72;95.91;99697.53;5072062;28;20747;-56
2023/06/13 01:50:58;;;;;;;13.73;9.20;;;;;;;17.65;96.75;99697.88;5061828;28;20279;-59
2023/06/13 01:53:33;;;;;;;19.80;9.57;;;;;;;17.45;97.42;99682.28;5072045;28;20285;-58
2023/06/13 01:56:08;;;;;;;20.07;9.50;;;;;;;17.39;98.84;99690.50;5061509;28;20419;-59
2023/06/13 01:58:48;;;;;;;17.77;9.57;;;;;;;17.25;99.61;99689.47;5060690;28;20335;-59
2023/06/13 02:01:20;;;;;;;17.50;9.63;;;;;;;16.92;100.00;99649.00;5071506;28;20269;-57
2023/06/13 02:03:51;;;;;;;19.07;9.43;;;;;;;17.09;100.00;99693.81;5062646;28;20286;-60
2023/06/13 02:06:22;;;;;;;17.70;10.23;;;;;;;17.06;100.00;99695.78;5071435;28;20286;-59
2023/06/13 02:08:54;;;;;;;17.90;9.90;;;;;;;16.91;100.00;99684.25;5061711;28;20718;-58
2023/06/13 02:11:26;;;;;;;18.57;9.17;;;;;;;16.85;100.00;99681.91;5071594;27;20277;-58
2023/06/13 02:13:58;;;;;;;15.30;10.13;;;;;;;16.80;100.00;99680.38;5056380;28;20379;-57
2023/06/13 02:16:30;;;;;;;13.90;9.90;;;;;;;16.85;100.00;99676.63;5069888;28;20281;-56
2023/06/13 02:19:01;;;;;;;14.87;9.73;;;;;;;16.91;100.00;99678.97;5060541;27;20303;-58
2023/06/13 02:21:32;;;;;;;20.87;11.00;;;;;;;17.08;100.00;99676.28;5066420;28;20763;-57
2023/06/13 02:24:03;;;;;;;19.63;10.63;;;;;;;17.28;100.00;99677.03;5070856;28;20300;-56
2023/06/13 02:26:40;;;;;;;16.90;9.97;;;;;;;17.21;100.00;99624.53;5060014;27;20398;-58
2023/06/13 02:29:13;;;;;;;15.23;10.40;;;;;;;17.65;100.00;99663.53;5070335;28;20783;-58
2023/06/13 02:31:44;;;;;;;16.93;9.10;;;;;;;17.84;100.00;99670.47;5060948;28;20298;-59
2023/06/13 02:34:15;;;;;;;14.23;10.57;;;;;;;17.97;100.00;99662.69;5071166;28;20278;-56
2023/06/13 02:36:46;;;;;;;14.13;10.17;;;;;;;18.04;100.00;99654.31;5060976;27;20286;-57
2023/06/13 02:39:16;;;;;;;15.43;10.77;;;;;;;18.19;100.00;99643.81;5070646;27;20274;-57
2023/06/13 02:41:47;;;;;;;15.70;11.90;;;;;;;18.36;100.00;99646.34;5060321;28;20962;-57
2023/06/13 02:44:19;;;;;;;19.57;11.23;;;;;;;18.52;100.00;99646.28;5070717;28;20382;-56
2023/06/13 02:46:50;;;;;;;16.47;11.67;;;;;;;18.77;100.00;99640.44;5060463;28;20289;-58
2023/06/13 02:49:20;;;;;;;20.93;12.63;;;;;;;18.91;100.00;99637.78;5070985;28;20290;-57
2023/06/13 02:51:51;;;;;;;16.27;10.97;;;;;;;19.10;99.68;99641.97;5057659;28;20557;-57
2023/06/13 02:54:22;;;;;;;16.57;10.77;;;;;;;19.21;98.85;99634.19;5070539;28;21041;-57
2023/06/13 02:56:52;;;;;;;21.73;11.17;;;;;;;19.22;98.27;99635.91;5060259;28;20349;-58
2023/06/13 02:59:26;;;;;;;18.97;12.23;;;;;;;19.22;98.17;99630.63;5070292;28;21595;-57
2023/06/13 03:01:56;;;;;;;16.40;10.93;;;;;;;19.27;97.60;99639.13;5060254;27;20293;-58
2023/06/13 03:04:28;;;;;;;17.10;10.57;;;;;;;18.69;97.49;99531.50;5070488;28;20377;-56
2023/06/13 03:06:59;;;;;;;12.63;9.63;;;;;;;19.17;96.94;99627.41;5060463;28;20700;-57
2023/06/13 03:09:30;;;;;;;17.27;9.90;;;;;;;19.11;97.08;99628.63;5070664;27;20281;-58
2023/06/13 03:12:00;;;;;;;17.33;9.90;;;;;;;18.62;97.60;99557.50;5059278;28;20362;-57
2023/06/13 03:14:33;;;;;;;16.97;9.60;;;;;;;18.68;97.66;99577.44;5069989;28;20286;-58
2023/06/13 03:17:03;;;;;;;16.37;11.07;;;;;;;18.86;98.06;99618.69;5052326;28;20294;-57
2023/06/13 03:19:34;;;;;;;16.03;9.30;;;;;;;18.77;98.09;99619.25;5058866;28;20293;-57
2023/06/13 03:22:05;;;;;;;15.30;9.50;;;;;;;18.70;98.59;99615.25;5069594;28;20332;-56
2023/06/13 03:24:36;;;;;;;14.57;9.90;;;;;;;18.68;99.06;99619.78;5060163;28;20277;-58
2023/06/13 03:27:08;;;;;;;19.53;9.77;;;;;;;18.70;99.62;99631.13;5069569;28;20350;-57
2023/06/13 03:29:41;;;;;;;13.27;10.00;;;;;;;18.77;99.80;99629.84;5058880;28;20332;-59
2023/06/13 03:32:12;;;;;;;16.43;9.60;;;;;;;18.80;99.79;99624.38;5070055;28;20290;-57
2023/06/13 03:34:43;;;;;;;16.60;9.80;;;;;;;18.83;100.00;99629.47;5059699;28;21005;-57
2023/06/13 03:37:14;;;;;;;11.23;8.60;;;;;;;18.90;99.71;99630.78;5070046;28;20389;-56
2023/06/13 03:39:44;;;;;;;11.70;9.00;;;;;;;19.02;99.76;99628.31;5059850;27;20297;-58
2023/06/13 03:42:15;;;;;;;11.70;8.60;;;;;;;19.14;99.14;99630.22;5069702;28;20293;-57
2023/06/13 03:44:49;;;;;;;13.93;8.43;;;;;;;19.18;98.83;99618.50;5058895;28;20306;-57
2023/06/13 03:47:20;;;;;;;13.33;8.27;;;;;;;19.40;98.51;99629.47;5069568;28;20801;-57
2023/06/13 03:49:51;;;;;;;10.67;7.60;;;;;;;19.56;96.98;99644.38;5059245;28;20345;-58
2023/06/13 03:52:21;;;;;;;11.50;8.07;;;;;;;19.61;96.45;99643.13;5069165;28;20273;-57
2023/06/13 03:54:53;;;;;;;13.47;8.47;;;;;;;19.63;96.08;99640.41;5060485;28;20288;-58
2023/06/13 03:57:24;;;;;;;13.13;8.50;;;;;;;19.64;96.29;99642.09;5069503;28;20301;-56
2023/06/13 03:59:56;;;;;;;12.20;8.20;;;;;;;19.57;96.08;99640.81;5060092;28;20285;-56
2023/06/13 04:02:27;;;;;;;12.37;8.10;;;;;;;19.48;96.85;99644.88;5069500;28;20323;-56
2023/06/13 04:04:58;;;;;;;13.53;8.43;;;;;;;19.46;96.84;99648.56;5058649;28;20774;-57
2023/06/13 04:07:33;;;;;;;15.97;9.47;;;;;;;19.44;96.26;99650.44;5069213;28;20295;-58
2023/06/13 04:10:04;;;;;;;25.63;10.43;;;;;;;19.37;96.34;99645.56;5058626;28;20294;-56
2023/06/13 04:12:35;;;;;;;13.03;9.23;;;;;;;19.36;96.34;99646.47;5059282;28;20293;-58
2023/06/13 04:15:08;;;;;;;17.63;8.63;;;;;;;19.37;97.05;99650.84;5068451;28;20343;-58
2023/06/13 04:17:38;;;;;;;13.77;8.73;;;;;;;19.31;96.74;99648.56;5059198;28;20282;-58
2023/06/13 04:20:10;;;;;;;10.03;7.17;;;;;;;19.29;96.61;99653.09;5068904;28;20346;-58
2023/06/13 04:22:41;;;;;;;13.53;8.73;;;;;;;19.25;96.71;99654.25;5059488;28;21243;-57
2023/06/13 04:25:12;;;;;;;17.80;8.83;;;;;;;19.17;96.39;99653.91;5068881;28;20293;-56
2023/06/13 04:27:43;;;;;;;14.47;9.70;;;;;;;19.12;96.80;99656.81;5059181;28;20361;-57
2023/06/13 04:30:16;;;;;;;17.03;11.37;;;;;;;19.01;96.31;99663.72;5069994;28;20282;-57
2023/06/13 04:32:47;;;;;;;16.27;10.47;;;;;;;18.83;97.17;99661.22;5062672;28;20936;-57
2023/06/13 04:35:24;;;;;;;14.37;9.80;;;;;;;18.64;98.05;99653.50;5073259;28;20301;-57
2023/06/13 04:37:56;;;;;;;15.37;9.83;;;;;;;18.52;99.18;99659.50;5062864;28;20297;-58
2023/06/13 04:40:31;;;;;;;16.17;10.17;;;;;;;18.39;99.71;99646.16;5073271;28;20278;-57
2023/06/13 04:43:03;;;;;;;22.17;11.87;;;;;;;18.41;100.00;99660.16;5062712;28;20370;-57
2023/06/13 04:45:36;;;;;;;22.07;11.67;;;;;;;18.30;100.00;99659.94;5063240;28;20313;-57
2023/06/13 04:48:09;;;;;;;16.57;10.37;;;;;;;18.24;100.00;99657.63;5072585;28;20817;-57
2023/06/13 04:50:41;;;;;;;17.87;11.37;;;;;;;18.13;100.00;99660.91;5062370;28;20384;-57
2023/06/13 04:53:12;;;;;;;12.97;8.47;;;;;;;17.89;100.00;99668.41;5072521;28;20280;-57
2023/06/13 04:55:43;;;;;;;13.93;6.40;;;;;;;17.14;96.14;99649.56;5062545;28;20289;-57
2023/06/13 04:58:14;;;;;;;11.90;5.70;;;;;;;16.47;96.33;99647.75;5072465;28;20381;-56
2023/06/13 05:00:48;;;;;;;11.07;4.83;;;;;;;16.01;97.06;99652.69;5063093;28;20359;-57
2023/06/13 05:03:19;;;;;;;11.00;5.80;;;;;;;15.64;98.44;99651.75;5072490;28;20367;-58
2023/06/13 05:05:50;;;;;;;7.50;5.20;;;;;;;15.24;99.70;99648.34;5062305;28;20835;-57
2023/06/13 05:08:21;;;;;;;10.57;5.33;;;;;;;15.16;100.00;99647.84;5072300;28;20823;-56
2023/06/13 05:10:53;;;;;;;9.07;5.30;;;;;;;15.10;100.00;99652.44;5062521;28;20306;-57
2023/06/13 05:13:23;;;;;;;8.10;4.90;;;;;;;15.03;100.00;99651.00;5072328;28;20661;-56
2023/06/13 05:15:56;;;;;;;12.80;4.90;;;;;;;14.94;100.00;99656.66;5062766;28;20673;-56
2023/06/13 05:18:29;;;;;;;39.70;5.07;;;;;;;14.74;100.00;99651.44;5072497;28;20285;-56
2023/06/13 05:21:00;;;;;;;6.67;3.90;;;;;;;14.66;100.00;99655.25;5061751;28;20755;-55
2023/06/13 05:23:31;;;;;;;6.43;3.93;;;;;;;14.57;100.00;99658.25;5071136;27;20290;-57
2023/06/13 05:26:02;;;;;;;8.27;3.57;;;;;;;14.48;100.00;99653.38;5072528;28;20296;-57
2023/06/13 05:28:33;;;;;;;5.07;3.33;;;;;;;14.43;100.00;99642.19;5062225;27;20598;-57
2023/06/13 05:31:05;;;;;;;6.77;2.83;;;;;;;14.28;100.00;99642.81;5072512;28;20290;-56
2023/06/13 05:33:37;;;;;;;6.57;3.30;;;;;;;14.18;100.00;99643.22;5062565;27;20301;-57
2023/06/13 05:36:08;;;;;;;6.43;3.00;;;;;;;14.27;100.00;99643.75;5071900;28;20308;-58
2023/06/13 05:38:38;;;;;;;5.43;3.07;;;;;;;14.20;100.00;99635.25;5061310;28;20368;-57
2023/06/13 05:41:09;;;;;;;4.07;3.33;;;;;;;14.12;100.00;99635.56;5071237;28;20898;-56
2023/06/13 05:43:40;;;;;;;10.23;3.30;;;;;;;13.99;100.00;99629.97;5061907;28;20386;-57
2023/06/13 05:46:13;;;;;;;4.77;3.00;;;;;;;13.95;100.00;99630.16;5071961;28;20282;-56
2023/06/13 05:48:44;;;;;;;4.33;2.87;;;;;;;13.94;100.00;99625.81;5061875;27;20332;-56
2023/06/13 05:51:15;;;;;;;6.53;2.70;;;;;;;13.92;100.00;99627.66;5071897;28;20772;-56
2023/06/13 05:53:46;;;;;;;8.23;3.17;;;;;;;13.87;100.00;99629.59;5061560;28;20776;-57
2023/06/13 05:56:16;;;;;;;6.47;2.93;;;;;;;13.88;100.00;99623.41;5071654;27;20290;-57
2023/06/13 05:58:47;;;;;;;6.15;2.72;;;;;;;13.85;100.00;99620.94;5061512;27;20328;-56
2023/06/13 06:01:20;;;;;;;4.30;2.70;;;;;;;13.56;100.00;99567.81;5071594;28;20215;-56
2023/06/13 06:03:51;;;;;;;7.13;2.83;;;;;;;13.69;100.00;99590.03;5061589;27;20649;-57
2023/06/13 06:06:21;;;;;;;4.47;2.87;;;;;;;13.84;100.00;99620.06;5071469;28;20101;-57
2023/06/13 06:08:52;;;;;;;3.60;2.57;;;;;;;13.72;100.00;99621.41;5061394;28;20820;-56
2023/06/13 06:11:22;;;;;;;4.20;2.25;;;;;;;13.57;100.00;99630.75;5071424;28;20282;-58
2023/06/13 06:13:53;;;;;;;6.10;1.92;;;;;;;13.44;100.00;99620.78;5061773;28;20116;-56
2023/06/13 06:16:25;;;;;;;4.00;2.00;;;;;;;13.24;100.00;99614.50;5071738;28;20043;-57
2023/06/13 06:18:56;;;;;;;4.10;1.90;;;;;;;13.22;100.00;99621.56;5062056;28;20056;-57
2023/06/13 06:21:28;;;;;;;3.95;1.90;;;;;;;13.16;100.00;99627.91;5071273;28;20134;-56
2023/06/13 06:23:59;;;;;;;3.22;2.40;;;;;;;13.17;100.00;99628.75;5060723;28;20395;-58
2023/06/13 06:26:30;;;;;;;9.80;2.10;;;;;;;13.07;100.00;99624.75;5070649;28;20061;-59
2023/06/13 06:29:01;;;;;;;3.15;2.30;;;;;;;13.04;100.00;99638.00;5060023;28;20047;-57
2023/06/13 06:31:33;;;;;;;4.63;2.15;;;;;;;12.92;100.00;99629.63;5066200;28;20053;-58
2023/06/13 06:34:05;;;;;;;5.13;2.20;;;;;;;12.87;100.00;99630.72;5070486;28;20101;-56
2023/06/13 06:36:35;;;;;;;3.25;2.33;;;;;;;12.80;100.00;99629.22;5061533;28;20056;-57
2023/06/13 06:39:06;;;;;;;5.82;2.33;;;;;;;12.68;100.00;99620.03;5070740;27;20498;-57
2023/06/13 06:41:37;;;;;;;2.10;1.60;;;;;;;12.67;100.00;99628.81;5060823;28;20087;-58
2023/06/13 06:44:07;;;;;;;2.85;2.20;;;;;;;12.61;100.00;99629.03;5071003;28;20996;-56
2023/06/13 06:46:40;;;;;;;2.78;1.90;;;;;;;12.56;100.00;99630.97;5060055;28;20152;-57
2023/06/13 06:49:10;;;;;;;4.45;1.70;;;;;;;12.56;100.00;99630.97;5070566;28;20543;-58
2023/06/13 06:51:41;;;;;;;4.38;1.90;;;;;;;12.46;100.00;99623.41;5060884;28;20549;-55
2023/06/13 06:54:11;;;;;;;3.05;1.27;;;;;;;12.51;100.00;99628.50;5069256;28;20484;-57
2023/06/13 06:56:42;;;;;;;3.13;1.38;;;;;;;12.48;100.00;99625.97;5059846;28;20047;-57
2023/06/13 06:59:13;;;;;;;2.45;1.20;;;;;;;12.40;100.00;99623.59;5070487;28;20582;-58
2023/06/13 07:01:45;;;;;;;3.20;1.75;;;;;;;12.38;100.00;99628.06;5060247;28;20044;-57
2023/06/13 07:04:17;;;;;;;2.63;1.25;;;;;;;12.31;100.00;99631.78;5070504;27;20044;-59
2023/06/13 07:06:48;;;;;;;2.53;1.60;;;;;;;12.24;100.00;99625.03;5060088;28;20040;-58
2023/06/13 07:09:18;;;;;;;3.40;1.50;;;;;;;12.23;100.00;99634.69;5070054;28;20071;-57
2023/06/13 07:11:50;;;;;;;3.55;1.50;;;;;;;12.18;100.00;99625.22;5060339;28;20466;-58
2023/06/13 07:14:21;;;;;;;2.33;1.42;;;;;;;12.18;100.00;99620.00;5069966;28;20047;-57
2023/06/13 07:16:54;;;;;;;3.80;1.95;;;;;;;11.77;100.00;99548.88;5060346;28;20880;-58
2023/06/13 07:19:24;;;;;;;2.70;1.90;;;;;;;12.24;100.00;99609.31;5070452;28;21020;-59
2023/06/13 07:21:55;;;;;;;3.80;2.17;;;;;;;12.35;100.00;99622.91;5060812;28;20052;-58
2023/06/13 07:24:26;;;;;;;2.75;2.00;;;;;;;12.29;100.00;99617.88;5069748;28;20063;-57
2023/06/13 07:26:57;;;;;;;2.67;2.00;;;;;;;12.16;100.00;99614.81;5055329;28;20052;-58
2023/06/13 07:29:27;;;;;;;3.00;1.92;;;;;;;12.16;100.00;99621.84;5070108;28;20039;-54
2023/06/13 07:31:59;;;;;;;2.72;2.28;;;;;;;12.15;100.00;99625.34;5059194;28;20058;-57
2023/06/13 07:34:30;;;;;;;3.13;1.98;;;;;;;12.11;100.00;99610.66;5069469;28;20051;-56
2023/06/13 07:37:04;;;;;;;4.93;1.80;;;;;;;12.11;100.00;99618.50;5052034;28;20058;-58
2023/06/13 07:39:34;;;;;;;3.50;1.80;;;;;;;12.02;100.00;99615.25;5059975;28;20379;-59
2023/06/13 07:42:06;;;;;;;2.33;1.60;;;;;;;12.04;100.00;99616.06;5069125;28;20093;-58
2023/06/13 07:44:36;;;;;;;3.35;1.73;;;;;;;11.95;100.00;99634.69;5057540;28;20071;-58
2023/06/13 07:47:09;;;;;;;2.53;1.77;;;;;;;11.91;100.00;99621.78;5069654;28;20055;-58
2023/06/13 07:49:39;;;;;;;3.42;1.90;;;;;;;12.00;100.00;99621.47;5058802;28;20055;-58
2023/06/13 07:52:10;;;;;;;3.38;2.10;;;;;;;12.05;100.00;99619.53;5069310;28;20068;-57
2023/06/13 07:54:40;;;;;;;2.55;1.75;;;;;;;12.08;100.00;99612.47;5058762;28;20062;-59
2023/06/13 07:57:12;;;;;;;4.57;1.80;;;;;;;12.13;100.00;99614.06;5066985;28;20051;-57
2023/06/13 08:00:04;;;;;;;2.20;1.70;;;;;;;12.20;100.00;99619.03;5059330;28;20043;-57
2023/06/13 08:02:37;;;;;;;2.30;1.88;;;;;;;11.99;100.00;99589.19;5059059;28;20055;-59
2023/06/13 08:05:08;;;;;;;3.63;1.77;;;;;;;12.06;100.00;99606.41;5069181;28;20035;-59
2023/06/13 08:07:39;;;;;;;6.32;1.88;;;;;;;12.14;100.00;99610.53;5058604;28;20390;-58
2023/06/13 08:10:09;;;;;;;5.13;1.90;;;;;;;12.01;100.00;99603.09;5069143;28;20751;-59
2023/06/13 08:12:41;;;;;;;3.42;2.05;;;;;;;12.05;100.00;99620.41;5059276;28;20114;-57
2023/06/13 08:15:11;;;;;;;8.63;2.30;;;;;;;11.97;100.00;99606.72;5069606;28;20202;-57
2023/06/13 08:17:43;;;;;;;5.18;1.77;;;;;;;11.99;100.00;99625.84;5058898;28;20079;-58
2023/06/13 08:20:14;;;;;;;3.97;2.00;;;;;;;11.94;100.00;99622.53;5069114;28;20056;-58
2023/06/13 08:22:45;;;;;;;2.88;1.70;;;;;;;11.94;100.00;99622.53;5059108;28;20048;-57
2023/06/13 08:25:16;;;;;;;1.75;1.40;;;;;;;11.93;100.00;99626.06;5068897;28;20055;-58
2023/06/13 08:27:46;;;;;;;2.50;1.50;;;;;;;11.91;100.00;99632.25;5058971;28;20151;-58
2023/06/13 08:30:17;;;;;;;3.00;1.40;;;;;;;11.85;100.00;99622.78;5069332;28;20052;-57
2023/06/13 08:32:52;;;;;;;2.42;1.60;;;;;;;11.84;100.00;99626.31;5059270;28;20538;-57
2023/06/13 08:35:23;;;;;;;2.65;1.40;;;;;;;11.81;100.00;99626.41;5066936;28;20031;-57
2023/06/13 08:37:56;;;;;;;2.63;1.50;;;;;;;11.85;100.00;99628.00;5056604;28;20066;-58
2023/06/13 08:40:27;;;;;;;2.45;1.40;;;;;;;11.88;100.00;99622.69;5069371;28;20047;-58
2023/06/13 08:43:00;;;;;;;1.67;1.17;;;;;;;11.82;100.00;99623.72;5057311;28;20048;-59
2023/06/13 08:45:31;;;;;;;3.92;1.60;;;;;;;11.75;100.00;99610.88;5068575;28;20055;-58
2023/06/13 08:48:03;;;;;;;3.35;1.38;;;;;;;11.73;100.00;99623.16;5058815;28;20055;-57
2023/06/13 08:50:34;;;;;;;6.25;1.40;;;;;;;11.73;100.00;99623.16;5059231;28;20055;-59
2023/06/13 08:53:06;;;;;;;3.55;1.40;;;;;;;11.76;100.00;99620.47;5068735;28;20108;-57
2023/06/13 08:55:40;;;;;;;1.80;1.33;;;;;;;11.80;100.00;99620.28;5058085;28;20124;-57
2023/06/13 08:58:35;;;;;;;2.83;1.70;;;;;;;11.58;100.00;99578.28;5065437;28;20486;-57
2023/06/13 09:01:07;;;;;;;2.50;1.90;;;;;;;11.83;100.00;99619.34;5068684;28;20052;-57
2023/06/13 09:03:40;;;;;;;4.38;1.67;;;;;;;11.82;100.00;99622.88;5058100;28;20139;-58
2023/06/13 09:06:13;;;;;;;2.33;1.73;;;;;;;11.79;100.00;99622.97;5069088;28;20052;-58
2023/06/13 09:08:59;;;;;;;2.55;1.70;;;;;;;11.60;100.00;99592.13;5056911;28;20116;-56
2023/06/13 09:11:35;;;;;;;5.13;2.00;;;;;;;11.84;100.00;99615.84;5063392;28;20051;-58
2023/06/13 09:14:09;;;;;;;1.95;1.58;;;;;;;11.82;100.00;99622.88;5068562;28;20052;-57
2023/06/13 09:16:51;;;;;;;3.97;2.22;;;;;;;11.97;100.00;99634.66;5058858;28;20059;-57
2023/06/13 09:19:30;;;;;;;3.35;1.90;;;;;;;11.33;100.00;99524.97;5072374;27;20432;-58
2023/06/13 09:22:08;;;;;;;3.20;2.30;;;;;;;11.99;100.00;99631.09;5059071;27;20055;-57
2023/06/13 09:24:40;;;;;;;2.50;2.05;;;;;;;11.97;100.00;99627.66;5060073;28;20051;-58
2023/06/13 09:27:17;;;;;;;3.22;2.42;;;;;;;11.95;100.00;99631.22;5072685;28;20352;-57
2023/06/13 09:29:52;;;;;;;5.35;2.83;;;;;;;11.69;100.00;99595.38;5061723;28;20054;-56
2023/06/13 09:32:23;;;;;;;6.10;3.28;;;;;;;11.92;100.00;99642.66;5072353;28;20558;-58
2023/06/13 09:34:57;;;;;;;5.15;3.58;;;;;;;11.90;100.00;99641.84;5062398;28;20063;-56
2023/06/13 09:37:29;;;;;;;9.68;3.83;;;;;;;11.97;100.00;99645.97;5072126;28;20146;-56
2023/06/13 09:40:09;;;;;;;5.93;3.55;;;;;;;11.86;100.00;99645.44;5061956;28;20079;-58
2023/06/13 09:42:46;;;;;;;6.63;3.30;;;;;;;11.74;100.00;99641.44;5061928;27;20520;-59
2023/06/13 09:45:33;;;;;;;6.82;3.45;;;;;;;11.68;100.00;99651.22;5063458;28;20054;-57
2023/06/13 09:48:06;;;;;;;7.40;3.40;;;;;;;11.61;100.00;99643.59;5072157;28;20422;-57
2023/06/13 09:50:40;;;;;;;4.78;3.58;;;;;;;11.63;100.00;99649.63;5061987;27;20087;-59
2023/06/13 09:53:12;;;;;;;8.02;3.05;;;;;;;11.54;100.00;99642.06;5071929;27;20079;-58
2023/06/13 09:55:43;;;;;;;11.65;3.30;;;;;;;11.56;100.00;99642.88;5060311;28;20048;-59
2023/06/13 09:58:15;;;;;;;28.77;4.57;;;;;;;11.52;100.00;99656.09;5072150;27;20455;-58
2023/06/13 10:01:03;;;;;;;12.40;3.55;;;;;;;11.43;100.00;99646.72;5061597;28;20705;-57
2023/06/13 10:03:36;;;;;;;35.05;4.57;;;;;;;11.51;100.00;99649.16;5060550;27;20074;-57
2023/06/13 10:06:10;;;;;;;51.70;4.63;;;;;;;11.54;100.00;99655.13;5072224;27;20477;-59
2023/06/13 10:08:42;;;;;;;34.45;3.80;;;;;;;11.18;100.00;99605.63;5060943;28;20044;-59
2023/06/13 10:11:16;;;;;;;61.97;4.95;;;;;;;11.42;100.00;99650.25;5071568;28;20777;-59
2023/06/13 10:14:00;;;;;;;27.10;3.13;;;;;;;11.38;100.00;99653.88;5058060;27;20054;-57
2023/06/13 10:16:40;;;;;;;10.30;2.83;;;;;;;11.37;100.00;99646.94;5060360;27;20064;-58
2023/06/13 10:19:37;;;;;;;18.63;2.95;;;;;;;11.34;100.00;99647.03;5071341;28;20048;-57
2023/06/13 10:22:12;;;;;;;11.18;2.20;;;;;;;11.30;100.00;99648.00;5054200;28;20104;-58
2023/06/13 10:24:45;;;;;;;5.40;2.78;;;;;;;11.33;100.00;99650.53;5060730;27;20048;-57
2023/06/13 10:27:21;;;;;;;56.72;3.92;;;;;;;11.32;100.00;99648.81;5071882;28;20044;-57
2023/06/13 10:30:14;;;;;;;48.15;3.45;;;;;;;11.34;100.00;99647.03;5061110;28;20061;-58
2023/06/13 10:33:05;;;;;;;29.40;3.20;;;;;;;11.28;100.00;99647.19;5061148;28;20136;-58
2023/06/13 10:36:11;;;;;;;24.08;2.78;;;;;;;11.25;100.00;99647.28;5060988;27;20109;-59
2023/06/13 10:39:11;;;;;;;17.73;2.78;;;;;;;11.18;100.00;99647.47;5060159;28;20082;-58
2023/06/13 10:42:01;;;;;;;7.93;2.70;;;;;;;11.13;100.00;99649.38;5060692;28;20083;-58
2023/06/13 10:44:42;;;;;;;11.57;2.78;;;;;;;11.08;100.00;99651.22;5062191;28;20051;-58
2023/06/13 10:47:17;;;;;;;7.78;2.60;;;;;;;11.09;100.00;99658.19;5070829;27;20055;-59
2023/06/13 10:49:53;;;;;;;8.82;3.38;;;;;;;11.06;100.00;99657.41;5053692;28;20055;-57
2023/06/13 10:52:25;;;;;;;6.72;2.53;;;;;;;11.04;100.00;99665.31;5060741;28;20054;-58
2023/06/13 10:55:01;;;;;;;6.55;2.40;;;;;;;11.03;100.00;99658.34;5050280;28;20674;-59
2023/06/13 10:57:50;;;;;;;7.90;2.55;;;;;;;10.88;100.00;99653.53;5054460;28;20101;-55
2023/06/13 11:00:30;;;;;;;12.43;2.65;;;;;;;10.73;100.00;99634.78;5061241;28;20075;-58
2023/06/13 11:03:08;;;;;;;7.30;2.65;;;;;;;10.63;100.00;99625.47;5050668;28;20166;-58
2023/06/13 11:05:50;;;;;;;3.25;2.03;;;;;;;10.47;100.00;99600.66;5050481;28;20143;-58
2023/06/13 11:08:23;;;;;;;4.25;2.35;;;;;;;10.94;100.00;99666.47;5060124;28;20047;-59
2023/06/13 11:10:58;;;;;;;3.42;2.13;;;;;;;10.85;100.00;99654.47;5050339;28;20052;-58
2023/06/13 11:13:35;;;;;;;6.97;2.40;;;;;;;11.02;100.00;99680.16;5060553;28;20056;-58
2023/06/13 11:16:38;;;;;;;3.88;2.20;;;;;;;10.95;100.00;99682.09;5049681;28;20055;-58
2023/06/13 11:19:15;;;;;;;3.67;2.47;;;;;;;10.92;100.00;99691.78;5050166;28;20117;-56
2023/06/13 11:21:48;;;;;;;3.72;2.05;;;;;;;10.91;100.00;99700.53;5050432;28;20061;-58
2023/06/13 11:24:21;;;;;;;4.32;2.30;;;;;;;10.62;100.00;99662.94;5061002;28;20084;-58
2023/06/13 11:26:59;;;;;;;4.05;1.83;;;;;;;10.65;100.00;99657.63;5049944;28;20048;-56
2023/06/13 11:29:32;;;;;;;3.97;1.90;;;;;;;10.87;100.00;99683.19;5059896;28;20072;-56
2023/06/13 11:32:08;;;;;;;3.55;2.00;;;;;;;10.71;100.00;99646.19;5049729;28;20072;-57
2023/06/13 11:34:43;;;;;;;2.45;1.80;;;;;;;10.90;100.00;99683.13;5050165;28;20063;-59
2023/06/13 11:37:29;;;;;;;3.35;2.00;;;;;;;10.88;100.00;99679.69;5060388;28;20140;-58
2023/06/13 11:40:04;;;;;;;4.93;1.95;;;;;;;10.94;100.00;99690.84;5048800;28;20601;-58
2023/06/13 11:42:52;;;;;;;2.65;1.70;;;;;;;11.02;100.00;99688.00;5049566;27;20594;-58
2023/06/13 11:45:25;;;;;;;2.20;1.83;;;;;;;10.70;100.00;99637.47;5059797;28;20051;-57
2023/06/13 11:48:00;;;;;;;4.30;2.08;;;;;;;10.96;100.00;99682.97;5049989;28;20052;-57
2023/06/13 11:50:33;;;;;;;2.80;1.45;;;;;;;10.94;100.00;99683.00;5059929;28;20051;-55